<?xml version="1.0" encoding="UTF-8" standalone="no" ?>
<gpx xmlns="http://www.topografix.com/GPX/1/1" xmlns:xsi="http://www.w3.org/2001/XMLSchema-instance" xsi:schemaLocation="http://www.topografix.com/GPX/1/1 http://www.topografix.com/GPX/1/1/gpx.xsd" version="1.1" creator="VisuGPX - https://www.visugpx.com">
  <metadata>
    <name>De Gazeran à Montfort-l'Amaury-Méré via le GR1</name>
  </metadata>
  <trk>
    <name><![CDATA[GR1 De Rambouillet à Feucherolles (Yvelines) (2019)]]></name>
    <trkseg>
      <trkpt lat="48.6261" lon="1.77261">
        <ele>165</ele>
        <time>2017-03-12T17:33:05Z</time>
      </trkpt>
      <trkpt lat="48.62665" lon="1.77261">
        <ele>165</ele>
        <time>2017-03-12T17:33:25Z</time>
      </trkpt>
      <trkpt lat="48.62759" lon="1.77265">
        <ele>165</ele>
        <time>2017-03-12T17:33:45Z</time>
      </trkpt>
      <trkpt lat="48.62872" lon="1.77265">
        <ele>165</ele>
        <time>2017-03-12T17:34:05Z</time>
      </trkpt>
      <trkpt lat="48.62987" lon="1.77265">
        <ele>164.4</ele>
        <time>2017-03-12T17:34:25Z</time>
      </trkpt>
      <trkpt lat="48.63121" lon="1.77261">
        <ele>160.3</ele>
        <time>2017-03-12T17:34:45Z</time>
      </trkpt>
      <trkpt lat="48.63197" lon="1.77247">
        <ele>159</ele>
        <time>2017-03-12T17:35:05Z</time>
      </trkpt>
      <trkpt lat="48.63276" lon="1.7721">
        <ele>158.2</ele>
        <time>2017-03-12T17:35:25Z</time>
      </trkpt>
      <trkpt lat="48.63355" lon="1.7716">
        <ele>157.5</ele>
        <time>2017-03-12T17:35:45Z</time>
      </trkpt>
      <trkpt lat="48.63389" lon="1.77151">
        <ele>156.2</ele>
        <time>2017-03-12T17:36:05Z</time>
      </trkpt>
      <trkpt lat="48.63404" lon="1.77215">
        <ele>154.5</ele>
        <time>2017-03-12T17:36:25Z</time>
      </trkpt>
      <trkpt lat="48.63395" lon="1.77298">
        <ele>148.7</ele>
        <time>2017-03-12T17:36:45Z</time>
      </trkpt>
      <trkpt lat="48.63389" lon="1.77371">
        <ele>142.8</ele>
        <time>2017-03-12T17:37:05Z</time>
      </trkpt>
      <trkpt lat="48.63461" lon="1.77491">
        <ele>140.1</ele>
        <time>2017-03-12T17:37:25Z</time>
      </trkpt>
      <trkpt lat="48.63507" lon="1.77518">
        <ele>140.6</ele>
        <time>2017-03-12T17:37:45Z</time>
      </trkpt>
      <trkpt lat="48.63562" lon="1.77537">
        <ele>142.2</ele>
        <time>2017-03-12T17:38:05Z</time>
      </trkpt>
      <trkpt lat="48.63601" lon="1.77518">
        <ele>143.1</ele>
        <time>2017-03-12T17:38:25Z</time>
      </trkpt>
      <trkpt lat="48.6368" lon="1.77394">
        <ele>140.8</ele>
        <time>2017-03-12T17:38:45Z</time>
      </trkpt>
      <trkpt lat="48.63723" lon="1.77339">
        <ele>141.5</ele>
        <time>2017-03-12T17:39:05Z</time>
      </trkpt>
      <trkpt lat="48.63768" lon="1.77307">
        <ele>142.4</ele>
        <time>2017-03-12T17:39:25Z</time>
      </trkpt>
      <trkpt lat="48.63848" lon="1.77307">
        <ele>144.089</ele>
        <time>2017-03-12T17:39:45Z</time>
      </trkpt>
      <trkpt lat="48.63859" lon="1.77296">
        <ele>145.017</ele>
        <time>2017-03-12T17:40:05Z</time>
      </trkpt>
      <trkpt lat="48.63911" lon="1.77253">
        <ele>147.008</ele>
        <time>2017-03-12T17:40:25Z</time>
      </trkpt>
      <trkpt lat="48.64146" lon="1.76978">
        <ele>145.035</ele>
        <time>2017-03-12T17:40:45Z</time>
      </trkpt>
      <trkpt lat="48.6417" lon="1.76955">
        <ele>146.086</ele>
        <time>2017-03-12T17:41:05Z</time>
      </trkpt>
      <trkpt lat="48.64173" lon="1.7694">
        <ele>146.07</ele>
        <time>2017-03-12T17:41:25Z</time>
      </trkpt>
      <trkpt lat="48.64222" lon="1.76871">
        <ele>148.074</ele>
        <time>2017-03-12T17:41:45Z</time>
      </trkpt>
      <trkpt lat="48.64263" lon="1.768">
        <ele>149.098</ele>
        <time>2017-03-12T17:42:05Z</time>
      </trkpt>
      <trkpt lat="48.64307" lon="1.76718">
        <ele>148.046</ele>
        <time>2017-03-12T17:42:25Z</time>
      </trkpt>
      <trkpt lat="48.64355" lon="1.76658">
        <ele>145.048</ele>
        <time>2017-03-12T17:42:45Z</time>
      </trkpt>
      <trkpt lat="48.64362" lon="1.76624">
        <ele>145.014</ele>
        <time>2017-03-12T17:43:05Z</time>
      </trkpt>
      <trkpt lat="48.64365" lon="1.76518">
        <ele>143.048</ele>
        <time>2017-03-12T17:43:25Z</time>
      </trkpt>
      <trkpt lat="48.64359" lon="1.764">
        <ele>145.061</ele>
        <time>2017-03-12T17:43:45Z</time>
      </trkpt>
      <trkpt lat="48.64379" lon="1.76298">
        <ele>148.017</ele>
        <time>2017-03-12T17:44:05Z</time>
      </trkpt>
      <trkpt lat="48.64436" lon="1.76239">
        <ele>152.008</ele>
        <time>2017-03-12T17:44:25Z</time>
      </trkpt>
      <trkpt lat="48.64467" lon="1.76155">
        <ele>156.097</ele>
        <time>2017-03-12T17:44:45Z</time>
      </trkpt>
      <trkpt lat="48.64515" lon="1.75998">
        <ele>165.058</ele>
        <time>2017-03-12T17:45:05Z</time>
      </trkpt>
      <trkpt lat="48.64617" lon="1.75782">
        <ele>164.062</ele>
        <time>2017-03-12T17:45:25Z</time>
      </trkpt>
      <trkpt lat="48.64738" lon="1.75618">
        <ele>174.046</ele>
        <time>2017-03-12T17:45:45Z</time>
      </trkpt>
      <trkpt lat="48.64756" lon="1.75574">
        <ele>177.04</ele>
        <time>2017-03-12T17:46:05Z</time>
      </trkpt>
      <trkpt lat="48.64914" lon="1.75741">
        <ele>175.028</ele>
        <time>2017-03-12T17:46:25Z</time>
      </trkpt>
      <trkpt lat="48.65014" lon="1.75823">
        <ele>175.02</ele>
        <time>2017-03-12T17:46:45Z</time>
      </trkpt>
      <trkpt lat="48.64943" lon="1.75628">
        <ele>179.076</ele>
        <time>2017-03-12T17:47:05Z</time>
      </trkpt>
      <trkpt lat="48.65295" lon="1.74961">
        <ele>175.019</ele>
        <time>2017-03-12T17:47:25Z</time>
      </trkpt>
      <trkpt lat="48.65497" lon="1.74584">
        <ele>174.009</ele>
        <time>2017-03-12T17:47:45Z</time>
      </trkpt>
      <trkpt lat="48.65511" lon="1.74606">
        <ele>175.019</ele>
        <time>2017-03-12T17:48:05Z</time>
      </trkpt>
      <trkpt lat="48.6555" lon="1.74608">
        <ele>175.008</ele>
        <time>2017-03-12T17:48:25Z</time>
      </trkpt>
      <trkpt lat="48.65574" lon="1.74623">
        <ele>175.064</ele>
        <time>2017-03-12T17:48:45Z</time>
      </trkpt>
      <trkpt lat="48.6558" lon="1.74643">
        <ele>176.085</ele>
        <time>2017-03-12T17:49:05Z</time>
      </trkpt>
      <trkpt lat="48.65587" lon="1.74681">
        <ele>177.039</ele>
        <time>2017-03-12T17:49:25Z</time>
      </trkpt>
      <trkpt lat="48.6561" lon="1.74716">
        <ele>176.063</ele>
        <time>2017-03-12T17:49:45Z</time>
      </trkpt>
      <trkpt lat="48.65622" lon="1.7476">
        <ele>176.067</ele>
        <time>2017-03-12T17:50:05Z</time>
      </trkpt>
      <trkpt lat="48.65636" lon="1.74768">
        <ele>176.045</ele>
        <time>2017-03-12T17:50:25Z</time>
      </trkpt>
      <trkpt lat="48.65657" lon="1.74761">
        <ele>177.057</ele>
        <time>2017-03-12T17:50:45Z</time>
      </trkpt>
      <trkpt lat="48.65678" lon="1.74743">
        <ele>176.073</ele>
        <time>2017-03-12T17:51:05Z</time>
      </trkpt>
      <trkpt lat="48.65719" lon="1.74656">
        <ele>174.069</ele>
        <time>2017-03-12T17:51:25Z</time>
      </trkpt>
      <trkpt lat="48.65734" lon="1.74593">
        <ele>173.004</ele>
        <time>2017-03-12T17:51:45Z</time>
      </trkpt>
      <trkpt lat="48.65749" lon="1.74561">
        <ele>171.024</ele>
        <time>2017-03-12T17:52:05Z</time>
      </trkpt>
      <trkpt lat="48.6577" lon="1.74538">
        <ele>172.008</ele>
        <time>2017-03-12T17:52:25Z</time>
      </trkpt>
      <trkpt lat="48.65783" lon="1.74502">
        <ele>172.049</ele>
        <time>2017-03-12T17:52:45Z</time>
      </trkpt>
      <trkpt lat="48.65821" lon="1.74483">
        <ele>171.06</ele>
        <time>2017-03-12T17:53:05Z</time>
      </trkpt>
      <trkpt lat="48.65827" lon="1.74448">
        <ele>170.034</ele>
        <time>2017-03-12T17:53:25Z</time>
      </trkpt>
      <trkpt lat="48.65998" lon="1.74384">
        <ele>171.088</ele>
        <time>2017-03-12T17:53:45Z</time>
      </trkpt>
      <trkpt lat="48.66128" lon="1.74118">
        <ele>172.042</ele>
        <time>2017-03-12T17:54:05Z</time>
      </trkpt>
      <trkpt lat="48.66197" lon="1.73996">
        <ele>174.07</ele>
        <time>2017-03-12T17:54:25Z</time>
      </trkpt>
      <trkpt lat="48.66277" lon="1.74031">
        <ele>169.042</ele>
        <time>2017-03-12T17:54:45Z</time>
      </trkpt>
      <trkpt lat="48.66308" lon="1.74042">
        <ele>168.098</ele>
        <time>2017-03-12T17:55:05Z</time>
      </trkpt>
      <trkpt lat="48.66371" lon="1.73927">
        <ele>161.036</ele>
        <time>2017-03-12T17:55:25Z</time>
      </trkpt>
      <trkpt lat="48.66579" lon="1.73514">
        <ele>145.017</ele>
        <time>2017-03-12T17:55:45Z</time>
      </trkpt>
      <trkpt lat="48.66602" lon="1.73584">
        <ele>151.018</ele>
        <time>2017-03-12T17:56:05Z</time>
      </trkpt>
      <trkpt lat="48.66613" lon="1.73597">
        <ele>153.008</ele>
        <time>2017-03-12T17:56:25Z</time>
      </trkpt>
      <trkpt lat="48.66645" lon="1.73585">
        <ele>157.036</ele>
        <time>2017-03-12T17:56:45Z</time>
      </trkpt>
      <trkpt lat="48.6666" lon="1.73602">
        <ele>158.097</ele>
        <time>2017-03-12T17:57:05Z</time>
      </trkpt>
      <trkpt lat="48.66684" lon="1.73692">
        <ele>168.031</ele>
        <time>2017-03-12T17:57:25Z</time>
      </trkpt>
      <trkpt lat="48.66698" lon="1.73719">
        <ele>170.065</ele>
        <time>2017-03-12T17:57:45Z</time>
      </trkpt>
      <trkpt lat="48.66794" lon="1.73773">
        <ele>174.029</ele>
        <time>2017-03-12T17:58:05Z</time>
      </trkpt>
      <trkpt lat="48.66805" lon="1.73766">
        <ele>173.077</ele>
        <time>2017-03-12T17:58:25Z</time>
      </trkpt>
      <trkpt lat="48.66806" lon="1.73758">
        <ele>173.079</ele>
        <time>2017-03-12T17:58:45Z</time>
      </trkpt>
      <trkpt lat="48.66859" lon="1.73689">
        <ele>169.025</ele>
        <time>2017-03-12T17:59:05Z</time>
      </trkpt>
      <trkpt lat="48.66886" lon="1.73664">
        <ele>167.023</ele>
        <time>2017-03-12T17:59:25Z</time>
      </trkpt>
      <trkpt lat="48.66986" lon="1.73535">
        <ele>165.083</ele>
        <time>2017-03-12T17:59:45Z</time>
      </trkpt>
      <trkpt lat="48.67022" lon="1.73499">
        <ele>163.011</ele>
        <time>2017-03-12T18:00:05Z</time>
      </trkpt>
      <trkpt lat="48.6704" lon="1.73505">
        <ele>167.008</ele>
        <time>2017-03-12T18:00:25Z</time>
      </trkpt>
      <trkpt lat="48.6705" lon="1.73461">
        <ele>162.075</ele>
        <time>2017-03-12T18:00:45Z</time>
      </trkpt>
      <trkpt lat="48.67081" lon="1.73427">
        <ele>161.086</ele>
        <time>2017-03-12T18:01:05Z</time>
      </trkpt>
      <trkpt lat="48.67106" lon="1.7343">
        <ele>160.07</ele>
        <time>2017-03-12T18:01:25Z</time>
      </trkpt>
      <trkpt lat="48.67126" lon="1.73451">
        <ele>159.074</ele>
        <time>2017-03-12T18:01:45Z</time>
      </trkpt>
      <trkpt lat="48.67133" lon="1.73476">
        <ele>160.098</ele>
        <time>2017-03-12T18:02:05Z</time>
      </trkpt>
      <trkpt lat="48.67149" lon="1.73513">
        <ele>164.026</ele>
        <time>2017-03-12T18:02:25Z</time>
      </trkpt>
      <trkpt lat="48.67186" lon="1.7354">
        <ele>158.068</ele>
        <time>2017-03-12T18:02:45Z</time>
      </trkpt>
      <trkpt lat="48.67206" lon="1.73643">
        <ele>160.094</ele>
        <time>2017-03-12T18:03:05Z</time>
      </trkpt>
      <trkpt lat="48.67214" lon="1.73699">
        <ele>160.032</ele>
        <time>2017-03-12T18:03:25Z</time>
      </trkpt>
      <trkpt lat="48.67204" lon="1.73789">
        <ele>160.092</ele>
        <time>2017-03-12T18:03:45Z</time>
      </trkpt>
      <trkpt lat="48.6725" lon="1.73786">
        <ele>156.011</ele>
        <time>2017-03-12T18:04:05Z</time>
      </trkpt>
      <trkpt lat="48.67264" lon="1.7381">
        <ele>150.008</ele>
        <time>2017-03-12T18:04:25Z</time>
      </trkpt>
      <trkpt lat="48.67276" lon="1.73824">
        <ele>149.066</ele>
        <time>2017-03-12T18:04:45Z</time>
      </trkpt>
      <trkpt lat="48.67305" lon="1.73709">
        <ele>149.027</ele>
        <time>2017-03-12T18:05:05Z</time>
      </trkpt>
      <trkpt lat="48.67327" lon="1.73622">
        <ele>149.061</ele>
        <time>2017-03-12T18:05:25Z</time>
      </trkpt>
      <trkpt lat="48.67328" lon="1.73588">
        <ele>150.015</ele>
        <time>2017-03-12T18:05:45Z</time>
      </trkpt>
      <trkpt lat="48.67344" lon="1.7358">
        <ele>154.019</ele>
        <time>2017-03-12T18:06:05Z</time>
      </trkpt>
      <trkpt lat="48.67356" lon="1.73555">
        <ele>158.047</ele>
        <time>2017-03-12T18:06:25Z</time>
      </trkpt>
      <trkpt lat="48.6737" lon="1.73485">
        <ele>164.039</ele>
        <time>2017-03-12T18:06:45Z</time>
      </trkpt>
      <trkpt lat="48.67367" lon="1.73418">
        <ele>164.085</ele>
        <time>2017-03-12T18:07:05Z</time>
      </trkpt>
      <trkpt lat="48.67371" lon="1.73402">
        <ele>165.029</ele>
        <time>2017-03-12T18:07:25Z</time>
      </trkpt>
      <trkpt lat="48.67392" lon="1.73398">
        <ele>167</ele>
        <time>2017-03-12T18:07:45Z</time>
      </trkpt>
      <trkpt lat="48.67421" lon="1.73378">
        <ele>171.02</ele>
        <time>2017-03-12T18:08:05Z</time>
      </trkpt>
      <trkpt lat="48.67456" lon="1.73316">
        <ele>170.008</ele>
        <time>2017-03-12T18:08:25Z</time>
      </trkpt>
      <trkpt lat="48.67496" lon="1.7323">
        <ele>169.035</ele>
        <time>2017-03-12T18:08:45Z</time>
      </trkpt>
      <trkpt lat="48.67518" lon="1.73249">
        <ele>169.066</ele>
        <time>2017-03-12T18:09:05Z</time>
      </trkpt>
      <trkpt lat="48.67556" lon="1.733">
        <ele>172.05</ele>
        <time>2017-03-12T18:09:25Z</time>
      </trkpt>
      <trkpt lat="48.67574" lon="1.73316">
        <ele>172.024</ele>
        <time>2017-03-12T18:09:45Z</time>
      </trkpt>
      <trkpt lat="48.67692" lon="1.73329">
        <ele>175.028</ele>
        <time>2017-03-12T18:10:05Z</time>
      </trkpt>
      <trkpt lat="48.67732" lon="1.73346">
        <ele>178.066</ele>
        <time>2017-03-12T18:10:25Z</time>
      </trkpt>
      <trkpt lat="48.67859" lon="1.73456">
        <ele>179.078</ele>
        <time>2017-03-12T18:10:45Z</time>
      </trkpt>
      <trkpt lat="48.68208" lon="1.73956">
        <ele>166.044</ele>
        <time>2017-03-12T18:11:05Z</time>
      </trkpt>
      <trkpt lat="48.68295" lon="1.74451">
        <ele>162.059</ele>
        <time>2017-03-12T18:11:25Z</time>
      </trkpt>
      <trkpt lat="48.68304" lon="1.74516">
        <ele>160.003</ele>
        <time>2017-03-12T18:11:45Z</time>
      </trkpt>
      <trkpt lat="48.68376" lon="1.74583">
        <ele>154.023</ele>
        <time>2017-03-12T18:12:05Z</time>
      </trkpt>
      <trkpt lat="48.68421" lon="1.74521">
        <ele>154.008</ele>
        <time>2017-03-12T18:12:25Z</time>
      </trkpt>
      <trkpt lat="48.68557" lon="1.74434">
        <ele>155.058</ele>
        <time>2017-03-12T18:12:45Z</time>
      </trkpt>
      <trkpt lat="48.68576" lon="1.74391">
        <ele>154.089</ele>
        <time>2017-03-12T18:13:05Z</time>
      </trkpt>
      <trkpt lat="48.68577" lon="1.74323">
        <ele>155.023</ele>
        <time>2017-03-12T18:13:25Z</time>
      </trkpt>
      <trkpt lat="48.68593" lon="1.74281">
        <ele>157.037</ele>
        <time>2017-03-12T18:13:45Z</time>
      </trkpt>
      <trkpt lat="48.68667" lon="1.74244">
        <ele>157.081</ele>
        <time>2017-03-12T18:14:05Z</time>
      </trkpt>
      <trkpt lat="48.68694" lon="1.74242">
        <ele>157.079</ele>
        <time>2017-03-12T18:14:25Z</time>
      </trkpt>
      <trkpt lat="48.68702" lon="1.74226">
        <ele>157.021</ele>
        <time>2017-03-12T18:14:45Z</time>
      </trkpt>
      <trkpt lat="48.68703" lon="1.74191">
        <ele>157.097</ele>
        <time>2017-03-12T18:15:05Z</time>
      </trkpt>
      <trkpt lat="48.69067" lon="1.73602">
        <ele>175.029</ele>
        <time>2017-03-12T18:15:25Z</time>
      </trkpt>
      <trkpt lat="48.69267" lon="1.73626">
        <ele>176</ele>
        <time>2017-03-12T18:15:45Z</time>
      </trkpt>
      <trkpt lat="48.69767" lon="1.73676">
        <ele>179.02</ele>
        <time>2017-03-12T18:16:05Z</time>
      </trkpt>
      <trkpt lat="48.70009" lon="1.73185">
        <ele>182.008</ele>
        <time>2017-03-12T18:16:25Z</time>
      </trkpt>
      <trkpt lat="48.70068" lon="1.73012">
        <ele>182.075</ele>
        <time>2017-03-12T18:16:45Z</time>
      </trkpt>
      <trkpt lat="48.70174" lon="1.72686">
        <ele>178.046</ele>
        <time>2017-03-12T18:17:05Z</time>
      </trkpt>
      <trkpt lat="48.7025" lon="1.72338">
        <ele>185.08</ele>
        <time>2017-03-12T18:17:25Z</time>
      </trkpt>
      <trkpt lat="48.70285" lon="1.72168">
        <ele>185.044</ele>
        <time>2017-03-12T18:17:45Z</time>
      </trkpt>
      <trkpt lat="48.70671" lon="1.71904">
        <ele>189.038</ele>
        <time>2017-03-12T18:18:05Z</time>
      </trkpt>
      <trkpt lat="48.70737" lon="1.71847">
        <ele>188.086</ele>
        <time>2017-03-12T18:18:25Z</time>
      </trkpt>
      <trkpt lat="48.70998" lon="1.71609">
        <ele>185.038</ele>
        <time>2017-03-12T18:18:45Z</time>
      </trkpt>
      <trkpt lat="48.71168" lon="1.72132">
        <ele>169.084</ele>
        <time>2017-03-12T18:19:05Z</time>
      </trkpt>
      <trkpt lat="48.71197" lon="1.72212">
        <ele>175.098</ele>
        <time>2017-03-12T18:19:25Z</time>
      </trkpt>
      <trkpt lat="48.71233" lon="1.72327">
        <ele>177.015</ele>
        <time>2017-03-12T18:19:45Z</time>
      </trkpt>
      <trkpt lat="48.71276" lon="1.72445">
        <ele>171.026</ele>
        <time>2017-03-12T18:20:05Z</time>
      </trkpt>
      <trkpt lat="48.7129" lon="1.72534">
        <ele>174.008</ele>
        <time>2017-03-12T18:20:25Z</time>
      </trkpt>
      <trkpt lat="48.71348" lon="1.72953">
        <ele>172.082</ele>
        <time>2017-03-12T18:20:45Z</time>
      </trkpt>
      <trkpt lat="48.71348" lon="1.72988">
        <ele>174.023</ele>
        <time>2017-03-12T18:21:05Z</time>
      </trkpt>
      <trkpt lat="48.71251" lon="1.73049">
        <ele>182.067</ele>
        <time>2017-03-12T18:21:25Z</time>
      </trkpt>
      <trkpt lat="48.71203" lon="1.73068">
        <ele>182.071</ele>
        <time>2017-03-12T18:21:45Z</time>
      </trkpt>
      <trkpt lat="48.71131" lon="1.73121">
        <ele>182.045</ele>
        <time>2017-03-12T18:22:05Z</time>
      </trkpt>
      <trkpt lat="48.71073" lon="1.73145">
        <ele>178.063</ele>
        <time>2017-03-12T18:22:25Z</time>
      </trkpt>
      <trkpt lat="48.71109" lon="1.73312">
        <ele>182.085</ele>
        <time>2017-03-12T18:22:45Z</time>
      </trkpt>
      <trkpt lat="48.71165" lon="1.73492">
        <ele>181.061</ele>
        <time>2017-03-12T18:23:05Z</time>
      </trkpt>
      <trkpt lat="48.71214" lon="1.73612">
        <ele>183.095</ele>
        <time>2017-03-12T18:23:25Z</time>
      </trkpt>
      <trkpt lat="48.7125" lon="1.73615">
        <ele>183.049</ele>
        <time>2017-03-12T18:23:45Z</time>
      </trkpt>
      <trkpt lat="48.71282" lon="1.73604">
        <ele>178.023</ele>
        <time>2017-03-12T18:24:05Z</time>
      </trkpt>
      <trkpt lat="48.71293" lon="1.73587">
        <ele>177.008</ele>
        <time>2017-03-12T18:24:25Z</time>
      </trkpt>
      <trkpt lat="48.71303" lon="1.73556">
        <ele>178.012</ele>
        <time>2017-03-12T18:24:45Z</time>
      </trkpt>
      <trkpt lat="48.71325" lon="1.73528">
        <ele>178.083</ele>
        <time>2017-03-12T18:25:05Z</time>
      </trkpt>
      <trkpt lat="48.71337" lon="1.73524">
        <ele>172.037</ele>
        <time>2017-03-12T18:25:25Z</time>
      </trkpt>
      <trkpt lat="48.71381" lon="1.73571">
        <ele>168.091</ele>
        <time>2017-03-12T18:25:45Z</time>
      </trkpt>
      <trkpt lat="48.71406" lon="1.73576">
        <ele>165.075</ele>
        <time>2017-03-12T18:26:05Z</time>
      </trkpt>
      <trkpt lat="48.71441" lon="1.73571">
        <ele>160.043</ele>
        <time>2017-03-12T18:26:25Z</time>
      </trkpt>
      <trkpt lat="48.71479" lon="1.73556">
        <ele>158.075</ele>
        <time>2017-03-12T18:26:45Z</time>
      </trkpt>
      <trkpt lat="48.71539" lon="1.73546">
        <ele>149.071</ele>
        <time>2017-03-12T18:27:05Z</time>
      </trkpt>
      <trkpt lat="48.71768" lon="1.7349">
        <ele>136.067</ele>
        <time>2017-03-12T18:27:25Z</time>
      </trkpt>
      <trkpt lat="48.71983" lon="1.73441">
        <ele>131.081</ele>
        <time>2017-03-12T18:27:45Z</time>
      </trkpt>
      <trkpt lat="48.72123" lon="1.73402">
        <ele>128.019</ele>
        <time>2017-03-12T18:28:05Z</time>
      </trkpt>
      <trkpt lat="48.72152" lon="1.73404">
        <ele>127.008</ele>
        <time>2017-03-12T18:28:25Z</time>
      </trkpt>
      <trkpt lat="48.72244" lon="1.73387">
        <ele>127.029</ele>
        <time>2017-03-12T18:28:45Z</time>
      </trkpt>
      <trkpt lat="48.72329" lon="1.73412">
        <ele>128.01</ele>
        <time>2017-03-12T18:29:05Z</time>
      </trkpt>
      <trkpt lat="48.72347" lon="1.73414">
        <ele>127.094</ele>
        <time>2017-03-12T18:29:25Z</time>
      </trkpt>
      <trkpt lat="48.72521" lon="1.73453">
        <ele>128.058</ele>
        <time>2017-03-12T18:29:45Z</time>
      </trkpt>
      <trkpt lat="48.72552" lon="1.73475">
        <ele>128.092</ele>
        <time>2017-03-12T18:30:05Z</time>
      </trkpt>
      <trkpt lat="48.72998" lon="1.73931">
        <ele>138.08</ele>
        <time>2017-03-12T18:30:25Z</time>
      </trkpt>
      <trkpt lat="48.73006" lon="1.73991">
        <ele>138.082</ele>
        <time>2017-03-12T18:30:45Z</time>
      </trkpt>
      <trkpt lat="48.73003" lon="1.74052">
        <ele>138.038</ele>
        <time>2017-03-12T18:31:05Z</time>
      </trkpt>
      <trkpt lat="48.73008" lon="1.74157">
        <ele>140.078</ele>
        <time>2017-03-12T18:31:25Z</time>
      </trkpt>
      <trkpt lat="48.73022" lon="1.74252">
        <ele>142.033</ele>
        <time>2017-03-12T18:31:45Z</time>
      </trkpt>
      <trkpt lat="48.73043" lon="1.74462">
        <ele>141.026</ele>
        <time>2017-03-12T18:32:05Z</time>
      </trkpt>
      <trkpt lat="48.72956" lon="1.74515">
        <ele>143.008</ele>
        <time>2017-03-12T18:32:25Z</time>
      </trkpt>
      <trkpt lat="48.7296" lon="1.74544">
        <ele>144.02</ele>
        <time>2017-03-12T18:32:45Z</time>
      </trkpt>
      <trkpt lat="48.72971" lon="1.74567">
        <ele>144.081</ele>
        <time>2017-03-12T18:33:05Z</time>
      </trkpt>
      <trkpt lat="48.72973" lon="1.74589">
        <ele>145.095</ele>
        <time>2017-03-12T18:33:25Z</time>
      </trkpt>
      <trkpt lat="48.73003" lon="1.74626">
        <ele>145.029</ele>
        <time>2017-03-12T18:33:45Z</time>
      </trkpt>
      <trkpt lat="48.73037" lon="1.74695">
        <ele>147.013</ele>
        <time>2017-03-12T18:34:05Z</time>
      </trkpt>
      <trkpt lat="48.73063" lon="1.74881">
        <ele>149.031</ele>
        <time>2017-03-12T18:34:25Z</time>
      </trkpt>
      <trkpt lat="48.73066" lon="1.74987">
        <ele>152.053</ele>
        <time>2017-03-12T18:34:45Z</time>
      </trkpt>
      <trkpt lat="48.73068" lon="1.75186">
        <ele>163.099</ele>
        <time>2017-03-12T18:35:05Z</time>
      </trkpt>
      <trkpt lat="48.73062" lon="1.75227">
        <ele>165.041</ele>
        <time>2017-03-12T18:35:25Z</time>
      </trkpt>
      <trkpt lat="48.73062" lon="1.75462">
        <ele>180.081</ele>
        <time>2017-03-12T18:35:45Z</time>
      </trkpt>
      <trkpt lat="48.73047" lon="1.75697">
        <ele>181.009</ele>
        <time>2017-03-12T18:36:05Z</time>
      </trkpt>
      <trkpt lat="48.73027" lon="1.7596">
        <ele>181.008</ele>
        <time>2017-03-12T18:36:25Z</time>
      </trkpt>
      <trkpt lat="48.73242" lon="1.75804">
        <ele>183.087</ele>
        <time>2017-03-12T18:36:45Z</time>
      </trkpt>
      <trkpt lat="48.73465" lon="1.75637">
        <ele>187.098</ele>
        <time>2017-03-12T18:37:05Z</time>
      </trkpt>
      <trkpt lat="48.7355" lon="1.75566">
        <ele>187.082</ele>
        <time>2017-03-12T18:37:25Z</time>
      </trkpt>
      <trkpt lat="48.7358" lon="1.75545">
        <ele>187.086</ele>
        <time>2017-03-12T18:37:45Z</time>
      </trkpt>
      <trkpt lat="48.73668" lon="1.75541">
        <ele>185.07</ele>
        <time>2017-03-12T18:38:05Z</time>
      </trkpt>
      <trkpt lat="48.73721" lon="1.75551">
        <ele>184.088</ele>
        <time>2017-03-12T18:38:25Z</time>
      </trkpt>
      <trkpt lat="48.73931" lon="1.75621">
        <ele>181.05</ele>
        <time>2017-03-12T18:38:45Z</time>
      </trkpt>
      <trkpt lat="48.73959" lon="1.75619">
        <ele>180.046</ele>
        <time>2017-03-12T18:39:05Z</time>
      </trkpt>
      <trkpt lat="48.73918" lon="1.75819">
        <ele>183.036</ele>
        <time>2017-03-12T18:39:25Z</time>
      </trkpt>
      <trkpt lat="48.73873" lon="1.76045">
        <ele>186.017</ele>
        <time>2017-03-12T18:39:45Z</time>
      </trkpt>
      <trkpt lat="48.73808" lon="1.76363">
        <ele>184.018</ele>
        <time>2017-03-12T18:40:05Z</time>
      </trkpt>
      <trkpt lat="48.73809" lon="1.76393">
        <ele>184.008</ele>
        <time>2017-03-12T18:40:25Z</time>
      </trkpt>
      <trkpt lat="48.73875" lon="1.76384">
        <ele>182.036</ele>
        <time>2017-03-12T18:40:45Z</time>
      </trkpt>
      <trkpt lat="48.74037" lon="1.76351">
        <ele>178.057</ele>
        <time>2017-03-12T18:41:05Z</time>
      </trkpt>
      <trkpt lat="48.74102" lon="1.76346">
        <ele>172.091</ele>
        <time>2017-03-12T18:41:25Z</time>
      </trkpt>
      <trkpt lat="48.74172" lon="1.76359">
        <ele>161.015</ele>
        <time>2017-03-12T18:41:45Z</time>
      </trkpt>
      <trkpt lat="48.74223" lon="1.76373">
        <ele>157.099</ele>
        <time>2017-03-12T18:42:05Z</time>
      </trkpt>
      <trkpt lat="48.74205" lon="1.76434">
        <ele>155.077</ele>
        <time>2017-03-12T18:42:25Z</time>
      </trkpt>
      <trkpt lat="48.74234" lon="1.76515">
        <ele>152.019</ele>
        <time>2017-03-12T18:42:45Z</time>
      </trkpt>
      <trkpt lat="48.74238" lon="1.76562">
        <ele>151.075</ele>
        <time>2017-03-12T18:43:05Z</time>
      </trkpt>
      <trkpt lat="48.74195" lon="1.76786">
        <ele>151.096</ele>
        <time>2017-03-12T18:43:25Z</time>
      </trkpt>
      <trkpt lat="48.74195" lon="1.76786">
        <ele>151.031</ele>
        <time>2017-03-12T18:43:45Z</time>
      </trkpt>
      <trkpt lat="48.74226" lon="1.76929">
        <ele>155.024</ele>
        <time>2017-03-12T18:44:05Z</time>
      </trkpt>
      <trkpt lat="48.74253" lon="1.77283">
        <ele>180.008</ele>
        <time>2017-03-12T18:44:25Z</time>
      </trkpt>
      <trkpt lat="48.74662" lon="1.7859">
        <ele>191.082</ele>
        <time>2017-03-12T18:44:45Z</time>
      </trkpt>
      <trkpt lat="48.74698" lon="1.78728">
        <ele>190.073</ele>
        <time>2017-03-12T18:45:05Z</time>
      </trkpt>
      <trkpt lat="48.74667" lon="1.78893">
        <ele>190.017</ele>
        <time>2017-03-12T18:45:25Z</time>
      </trkpt>
      <trkpt lat="48.7483" lon="1.79934">
        <ele>193.051</ele>
        <time>2017-03-12T18:45:45Z</time>
      </trkpt>
      <trkpt lat="48.7483" lon="1.79934">
        <ele>193.025</ele>
        <time>2017-03-12T18:46:05Z</time>
      </trkpt>
      <trkpt lat="48.75156" lon="1.80168">
        <ele>184.053</ele>
        <time>2017-03-12T18:46:25Z</time>
      </trkpt>
      <trkpt lat="48.75258" lon="1.80239">
        <ele>181.085</ele>
        <time>2017-03-12T18:46:45Z</time>
      </trkpt>
      <trkpt lat="48.75442" lon="1.80376">
        <ele>178.071</ele>
        <time>2017-03-12T18:47:05Z</time>
      </trkpt>
      <trkpt lat="48.75654" lon="1.80539">
        <ele>177.046</ele>
        <time>2017-03-12T18:47:25Z</time>
      </trkpt>
      <trkpt lat="48.75708" lon="1.80569">
        <ele>170.088</ele>
        <time>2017-03-12T18:47:45Z</time>
      </trkpt>
      <trkpt lat="48.75743" lon="1.80511">
        <ele>165.016</ele>
        <time>2017-03-12T18:48:05Z</time>
      </trkpt>
      <trkpt lat="48.75747" lon="1.80541">
        <ele>167.008</ele>
        <time>2017-03-12T18:48:25Z</time>
      </trkpt>
      <trkpt lat="48.75752" lon="1.80559">
        <ele>163.087</ele>
        <time>2017-03-12T18:48:45Z</time>
      </trkpt>
      <trkpt lat="48.75814" lon="1.80576">
        <ele>165.028</ele>
        <time>2017-03-12T18:49:05Z</time>
      </trkpt>
      <trkpt lat="48.75821" lon="1.80598">
        <ele>165.052</ele>
        <time>2017-03-12T18:49:25Z</time>
      </trkpt>
      <trkpt lat="48.7582" lon="1.80624">
        <ele>165.086</ele>
        <time>2017-03-12T18:49:45Z</time>
      </trkpt>
      <trkpt lat="48.75826" lon="1.80647">
        <ele>165.06</ele>
        <time>2017-03-12T18:50:05Z</time>
      </trkpt>
      <trkpt lat="48.75838" lon="1.80661">
        <ele>169.038</ele>
        <time>2017-03-12T18:50:25Z</time>
      </trkpt>
      <trkpt lat="48.75865" lon="1.80666">
        <ele>173.02</ele>
        <time>2017-03-12T18:50:45Z</time>
      </trkpt>
      <trkpt lat="48.75923" lon="1.80713">
        <ele>184.036</ele>
        <time>2017-03-12T18:51:05Z</time>
      </trkpt>
      <trkpt lat="48.76172" lon="1.80745">
        <ele>183.023</ele>
        <time>2017-03-12T18:51:25Z</time>
      </trkpt>
      <trkpt lat="48.76302" lon="1.80765">
        <ele>184.083</ele>
        <time>2017-03-12T18:51:45Z</time>
      </trkpt>
      <trkpt lat="48.76349" lon="1.8078">
        <ele>183.011</ele>
        <time>2017-03-12T18:52:05Z</time>
      </trkpt>
      <trkpt lat="48.76379" lon="1.80811">
        <ele>182.008</ele>
        <time>2017-03-12T18:52:25Z</time>
      </trkpt>
      <trkpt lat="48.764" lon="1.80843">
        <ele>180.055</ele>
        <time>2017-03-12T18:52:45Z</time>
      </trkpt>
      <trkpt lat="48.76411" lon="1.80836">
        <ele>180.016</ele>
        <time>2017-03-12T18:53:05Z</time>
      </trkpt>
      <trkpt lat="48.7644" lon="1.80881">
        <ele>178.05</ele>
        <time>2017-03-12T18:53:25Z</time>
      </trkpt>
      <trkpt lat="48.76511" lon="1.80853">
        <ele>175.074</ele>
        <time>2017-03-12T18:53:45Z</time>
      </trkpt>
      <trkpt lat="48.76564" lon="1.80828">
        <ele>175.048</ele>
        <time>2017-03-12T18:54:05Z</time>
      </trkpt>
      <trkpt lat="48.7664" lon="1.80755">
        <ele>174.036</ele>
        <time>2017-03-12T18:54:25Z</time>
      </trkpt>
      <trkpt lat="48.7673" lon="1.8064">
        <ele>177.058</ele>
        <time>2017-03-12T18:54:45Z</time>
      </trkpt>
      <trkpt lat="48.76926" lon="1.80402">
        <ele>177.024</ele>
        <time>2017-03-12T18:55:05Z</time>
      </trkpt>
      <trkpt lat="48.77023" lon="1.80309">
        <ele>173.085</ele>
        <time>2017-03-12T18:55:25Z</time>
      </trkpt>
      <trkpt lat="48.77051" lon="1.80313">
        <ele>172.089</ele>
        <time>2017-03-12T18:55:45Z</time>
      </trkpt>
      <trkpt lat="48.77108" lon="1.80355">
        <ele>168.017</ele>
        <time>2017-03-12T18:56:05Z</time>
      </trkpt>
      <trkpt lat="48.77174" lon="1.80395">
        <ele>164.008</ele>
        <time>2017-03-12T18:56:25Z</time>
      </trkpt>
      <trkpt lat="48.77243" lon="1.80403">
        <ele>159.031</ele>
        <time>2017-03-12T18:56:45Z</time>
      </trkpt>
      <trkpt lat="48.77282" lon="1.80429">
        <ele>151.042</ele>
        <time>2017-03-12T18:57:05Z</time>
      </trkpt>
      <trkpt lat="48.77342" lon="1.8049">
        <ele>144.016</ele>
        <time>2017-03-12T18:57:25Z</time>
      </trkpt>
      <trkpt lat="48.77402" lon="1.80529">
        <ele>139.09</ele>
        <time>2017-03-12T18:57:45Z</time>
      </trkpt>
      <trkpt lat="48.77438" lon="1.8054">
        <ele>136.014</ele>
        <time>2017-03-12T18:58:05Z</time>
      </trkpt>
      <trkpt lat="48.77496" lon="1.80535">
        <ele>136.062</ele>
        <time>2017-03-12T18:58:25Z</time>
      </trkpt>
      <trkpt lat="48.77559" lon="1.80638">
        <ele>138.074</ele>
        <time>2017-03-12T18:58:45Z</time>
      </trkpt>
      <trkpt lat="48.77577" lon="1.80619">
        <ele>140.06</ele>
        <time>2017-03-12T18:59:05Z</time>
      </trkpt>
      <trkpt lat="48.77596" lon="1.80612">
        <ele>146.071</ele>
        <time>2017-03-12T18:59:25Z</time>
      </trkpt>
      <trkpt lat="48.77575" lon="1.80577">
        <ele>146.041</ele>
        <time>2017-03-12T18:59:45Z</time>
      </trkpt>
      <trkpt lat="48.7759" lon="1.80567">
        <ele>151.015</ele>
        <time>2017-03-12T19:00:05Z</time>
      </trkpt>
      <trkpt lat="48.77607" lon="1.80558">
        <ele>154.008</ele>
        <time>2017-03-12T19:00:05Z</time>
      </trkpt>
      <trkpt lat="48.77609" lon="1.80503">
        <ele>156.04</ele>
      </trkpt>
      <trkpt lat="48.77637" lon="1.80556">
        <ele>155.021</ele>
      </trkpt>
      <trkpt lat="48.77686" lon="1.80566">
        <ele>156.035</ele>
      </trkpt>
      <trkpt lat="48.77701" lon="1.8045">
        <ele>166.019</ele>
      </trkpt>
      <trkpt lat="48.77702" lon="1.80394">
        <ele>171.093</ele>
      </trkpt>
      <trkpt lat="48.77733" lon="1.80426">
        <ele>165.061</ele>
      </trkpt>
      <trkpt lat="48.77747" lon="1.80431">
        <ele>164.013</ele>
      </trkpt>
      <trkpt lat="48.77806" lon="1.80518">
        <ele>156.059</ele>
      </trkpt>
      <trkpt lat="48.77816" lon="1.8055">
        <ele>155.076</ele>
      </trkpt>
      <trkpt lat="48.77809" lon="1.80608">
        <ele>151.09</ele>
      </trkpt>
      <trkpt lat="48.77816" lon="1.80617">
        <ele>151.019</ele>
      </trkpt>
      <trkpt lat="48.77893" lon="1.80738">
        <ele>166.008</ele>
      </trkpt>
      <trkpt lat="48.77912" lon="1.80756">
        <ele>168.01</ele>
      </trkpt>
      <trkpt lat="48.77979" lon="1.80754">
        <ele>169.041</ele>
      </trkpt>
      <trkpt lat="48.7804" lon="1.80779">
        <ele>164.025</ele>
      </trkpt>
      <trkpt lat="48.7817" lon="1.80934">
        <ele>146.029</ele>
      </trkpt>
      <trkpt lat="48.78219" lon="1.80917">
        <ele>145.023</ele>
      </trkpt>
      <trkpt lat="48.78309" lon="1.81075">
        <ele>142.041</ele>
      </trkpt>
      <trkpt lat="48.78355" lon="1.81167">
        <ele>142.033</ele>
      </trkpt>
      <trkpt lat="48.78442" lon="1.812">
        <ele>141.1</ele>
      </trkpt>
      <trkpt lat="48.78481" lon="1.812">
        <ele>140.5</ele>
      </trkpt>
      <trkpt lat="48.78516" lon="1.81209">
        <ele>136.3</ele>
      </trkpt>
      <trkpt lat="48.78562" lon="1.81223">
        <ele>134.2</ele>
      </trkpt>
      <trkpt lat="48.78655" lon="1.8124">
        <ele>129.7</ele>
      </trkpt>
      <trkpt lat="48.78756" lon="1.81258">
        <ele>130.5</ele>
      </trkpt>
      <trkpt lat="48.7884" lon="1.8127">
        <ele>127.4</ele>
      </trkpt>
      <trkpt lat="48.78938" lon="1.81293">
        <ele>121</ele>
      </trkpt>
      <trkpt lat="48.79016" lon="1.81306">
        <ele>115.8</ele>
      </trkpt>
      <trkpt lat="48.79071" lon="1.81316">
        <ele>114.8</ele>
      </trkpt>
      <trkpt lat="48.79192" lon="1.81343">
        <ele>108.5</ele>
      </trkpt>
      <trkpt lat="48.79574" lon="1.81424">
        <ele>100.7</ele>
      </trkpt>
      <trkpt lat="48.79694" lon="1.8145">
        <ele>99.8</ele>
      </trkpt>
      <trkpt lat="48.79788" lon="1.81464">
        <ele>97.8</ele>
      </trkpt>
      <trkpt lat="48.79842" lon="1.81469">
        <ele>96.8</ele>
      </trkpt>
      <trkpt lat="48.79915" lon="1.81496">
        <ele>96</ele>
      </trkpt>
      <trkpt lat="48.79961" lon="1.81533">
        <ele>93.5</ele>
      </trkpt>
      <trkpt lat="48.80024" lon="1.81588">
        <ele>91.7</ele>
      </trkpt>
      <trkpt lat="48.80076" lon="1.81621">
        <ele>91.5</ele>
      </trkpt>
      <trkpt lat="48.80139" lon="1.81653">
        <ele>91.3</ele>
      </trkpt>
      <trkpt lat="48.80164" lon="1.81671">
        <ele>91</ele>
      </trkpt>
      <trkpt lat="48.80209" lon="1.81639">
        <ele>92.6</ele>
      </trkpt>
      <trkpt lat="48.80251" lon="1.81602">
        <ele>94.1</ele>
      </trkpt>
      <trkpt lat="48.80251" lon="1.81602">
        <ele>94.1</ele>
      </trkpt>
    </trkseg>
  </trk>
</gpx>